Time;durP1;ratioP1;P1;durP2;ratioP2;P2;SDS_P1;SDS_P2;PMS_P1;PMS_P2;Temp;Humidity;BMP_temperature;BMP_pressure;BME280_temperature;BME280_humidity;BME280_pressure;Samples;Min_cycle;Max_cycle;Signal;HPM_P1;HPM_P2
2021/09/21 00:00:20;;;;;;;;;;;24.40;41.50;;;;;;484991;245;997;-69
2021/09/21 00:02:21;;;;;;;;;;;24.40;41.50;;;;;;484941;245;1169;-69
2021/09/21 00:04:27;;;;;;;;;;;24.50;41.10;;;;;;485028;245;1134;-69
2021/09/21 00:06:25;;;;;;;;;;;24.30;41.50;;;;;;484748;245;1443;-69
2021/09/21 00:08:27;;;;;;;;;;;24.30;41.60;;;;;;484935;245;1018;-69
2021/09/21 00:10:28;;;;;;;;;;;24.40;41.50;;;;;;484857;245;1246;-69
2021/09/21 00:12:29;;;;;;;;;;;24.30;41.60;;;;;;484947;245;1337;-69
2021/09/21 00:14:30;;;;;;;;;;;24.40;41.50;;;;;;484979;245;1010;-69
2021/09/21 00:16:32;;;;;;;;;;;24.50;41.10;;;;;;484933;245;2168;-69
2021/09/21 00:18:33;;;;;;;;;;;24.50;41.30;;;;;;485045;245;1179;-69
2021/09/21 00:20:34;;;;;;;;;;;24.50;41.00;;;;;;485035;245;1099;-69
2021/09/21 00:22:36;;;;;;;;;;;24.60;40.80;;;;;;484928;245;1087;-69
2021/09/21 00:24:37;;;;;;;;;;;24.60;40.90;;;;;;485012;245;965;-69
2021/09/21 00:26:38;;;;;;;;;;;24.50;41.10;;;;;;484964;245;1056;-69
2021/09/21 00:28:40;;;;;;;;;;;24.30;41.30;;;;;;485045;245;1384;-69
2021/09/21 00:30:47;;;;;;;;;;;24.50;41.10;;;;;;484947;245;993;-69
2021/09/21 00:32:49;;;;;;;;;;;24.40;41.30;;;;;;484905;245;1398;-69
2021/09/21 00:34:48;;;;;;;;;;;24.40;41.30;;;;;;484824;245;2187;-69
2021/09/21 00:36:49;;;;;;;;;;;24.50;41.30;;;;;;484915;245;1095;-69
2021/09/21 00:38:51;;;;;;;;;;;24.40;41.50;;;;;;484919;245;1053;-69
2021/09/21 00:40:52;;;;;;;;;;;24.40;41.40;;;;;;484924;245;966;-69
2021/09/21 00:42:53;;;;;;;;;;;24.50;41.20;;;;;;484938;245;1289;-69
2021/09/21 00:44:54;;;;;;;;;;;24.20;41.60;;;;;;484997;246;1013;-69
2021/09/21 00:46:56;;;;;;;;;;;24.50;41.40;;;;;;484944;245;1230;-69
2021/09/21 00:48:57;;;;;;;;;;;24.50;41.50;;;;;;485051;245;1094;-69
2021/09/21 00:50:59;;;;;;;;;;;24.40;41.60;;;;;;484964;245;1219;-69
2021/09/21 00:53:00;;;;;;;;;;;24.40;41.30;;;;;;485035;245;1053;-69
2021/09/21 00:55:01;;;;;;;;;;;24.50;41.30;;;;;;484983;245;2199;-69
2021/09/21 00:57:03;;;;;;;;;;;24.70;41.10;;;;;;484966;245;1246;-69
2021/09/21 00:59:04;;;;;;;;;;;24.40;41.40;;;;;;485116;245;1127;-69
2021/09/21 01:01:05;;;;;;;;;;;24.40;41.50;;;;;;484899;245;1156;-69
2021/09/21 01:03:06;;;;;;;;;;;24.50;41.50;;;;;;484961;245;998;-69
2021/09/21 01:05:08;;;;;;;;;;;24.20;41.90;;;;;;484972;246;1011;-69
2021/09/21 01:07:09;;;;;;;;;;;24.40;41.70;;;;;;485010;245;1117;-69
2021/09/21 01:09:10;;;;;;;;;;;24.50;41.50;;;;;;485053;245;939;-69
2021/09/21 01:11:12;;;;;;;;;;;24.30;41.60;;;;;;484911;245;1206;-69
2021/09/21 01:13:13;;;;;;;;;;;24.50;41.60;;;;;;484910;245;991;-69
2021/09/21 01:15:14;;;;;;;;;;;24.20;42.10;;;;;;485030;245;2136;-69
2021/09/21 01:17:16;;;;;;;;;;;24.20;41.90;;;;;;484989;245;1055;-69
2021/09/21 01:19:17;;;;;;;;;;;24.30;41.90;;;;;;485015;245;1032;-69
2021/09/21 01:21:18;;;;;;;;;;;24.10;42.10;;;;;;484980;246;1234;-69
2021/09/21 01:23:20;;;;;;;;;;;24.20;41.90;;;;;;484966;245;1084;-69
2021/09/21 01:25:21;;;;;;;;;;;24.30;41.90;;;;;;485052;245;1027;-69
2021/09/21 01:27:22;;;;;;;;;;;24.50;41.70;;;;;;485008;245;1130;-69
2021/09/21 01:29:23;;;;;;;;;;;24.50;41.50;;;;;;485037;245;1154;-69
2021/09/21 01:31:25;;;;;;;;;;;24.30;41.80;;;;;;484923;245;1199;-69
2021/09/21 01:33:26;;;;;;;;;;;24.60;41.50;;;;;;484948;245;1077;-69
2021/09/21 01:35:27;;;;;;;;;;;24.40;41.50;;;;;;484910;245;2187;-69
2021/09/21 01:37:29;;;;;;;;;;;24.50;41.50;;;;;;484857;246;1122;-69
2021/09/21 01:39:30;;;;;;;;;;;24.50;41.50;;;;;;484978;245;1020;-69
2021/09/21 01:41:31;;;;;;;;;;;24.40;41.80;;;;;;484907;245;1183;-69
2021/09/21 01:43:33;;;;;;;;;;;24.10;42.10;;;;;;484979;245;1092;-69
2021/09/21 01:45:34;;;;;;;;;;;24.40;42.00;;;;;;485004;245;1417;-69
2021/09/21 01:47:35;;;;;;;;;;;24.30;42.00;;;;;;484877;245;1138;-69
2021/09/21 01:49:43;;;;;;;;;;;24.10;42.10;;;;;;485017;245;937;-69
2021/09/21 01:51:43;;;;;;;;;;;24.40;41.80;;;;;;484627;245;1402;-69
2021/09/21 01:53:45;;;;;;;;;;;24.30;42.10;;;;;;484782;246;1198;-69
2021/09/21 01:58:30;;;;;;;;;;;24.30;42.00;;;;;;484975;245;1185;-69
2021/09/21 02:00:20;;;;;;;;;;;24.40;42.00;;;;;;484320;245;1397;-69
2021/09/21 02:02:21;;;;;;;;;;;24.00;42.40;;;;;;484875;245;1150;-69
2021/09/21 02:04:23;;;;;;;;;;;24.30;41.90;;;;;;484929;245;1209;-69
2021/09/21 02:06:32;;;;;;;;;;;24.30;42.00;;;;;;484875;245;990;-69
2021/09/21 02:08:25;;;;;;;;;;;24.10;42.00;;;;;;484607;245;1425;-69
2021/09/21 02:10:27;;;;;;;;;;;24.40;42.10;;;;;;484969;245;1137;-69
2021/09/21 02:12:28;;;;;;;;;;;24.20;42.30;;;;;;484944;245;1054;-69
2021/09/21 02:14:29;;;;;;;;;;;24.00;42.40;;;;;;484989;245;1144;-69
2021/09/21 02:16:31;;;;;;;;;;;24.40;42.10;;;;;;485017;245;2117;-69
2021/09/21 02:18:32;;;;;;;;;;;24.40;42.10;;;;;;484935;245;995;-69
2021/09/21 02:20:33;;;;;;;;;;;24.10;42.20;;;;;;484953;245;1080;-69
2021/09/21 02:22:35;;;;;;;;;;;24.30;42.20;;;;;;484855;245;1090;-69
2021/09/21 02:24:36;;;;;;;;;;;24.20;42.30;;;;;;484928;245;943;-69
2021/09/21 02:26:37;;;;;;;;;;;24.40;42.10;;;;;;484904;245;1188;-69
2021/09/21 02:28:40;;;;;;;;;;;24.50;41.70;;;;;;484993;245;948;-69
2021/09/21 02:30:42;;;;;;;;;;;24.50;41.80;;;;;;484930;245;1311;-69
2021/09/21 02:32:44;;;;;;;;;;;24.60;41.50;;;;;;484921;245;1157;-69
2021/09/21 02:34:45;;;;;;;;;;;24.50;41.40;;;;;;484933;245;1872;-69
2021/09/21 02:36:46;;;;;;;;;;;24.30;42.10;;;;;;484865;245;2232;-69
2021/09/21 02:38:48;;;;;;;;;;;24.10;42.30;;;;;;484944;246;1065;-69
2021/09/21 02:40:49;;;;;;;;;;;24.20;42.00;;;;;;485038;245;1053;-69
2021/09/21 02:42:50;;;;;;;;;;;24.30;42.10;;;;;;484955;245;1183;-69
2021/09/21 02:44:52;;;;;;;;;;;24.30;42.00;;;;;;484960;245;1185;-69
2021/09/21 02:46:53;;;;;;;;;;;24.30;41.80;;;;;;484929;245;1195;-69
2021/09/21 02:48:54;;;;;;;;;;;24.30;42.00;;;;;;484975;245;975;-69
2021/09/21 02:50:55;;;;;;;;;;;24.20;42.00;;;;;;484973;245;1168;-69
2021/09/21 02:52:57;;;;;;;;;;;24.50;41.60;;;;;;484945;245;1191;-69
2021/09/21 02:54:58;;;;;;;;;;;24.30;42.00;;;;;;484980;245;1047;-69
2021/09/21 02:57:00;;;;;;;;;;;24.20;42.00;;;;;;484869;245;2105;-69
2021/09/21 02:59:01;;;;;;;;;;;24.40;41.80;;;;;;484981;245;953;-69
2021/09/21 03:01:02;;;;;;;;;;;24.30;41.90;;;;;;484875;245;1214;-69
2021/09/21 03:03:05;;;;;;;;;;;24.20;42.00;;;;;;485069;245;1019;-69
2021/09/21 03:05:08;;;;;;;;;;;24.40;41.90;;;;;;484936;245;1302;-69
2021/09/21 03:07:09;;;;;;;;;;;24.50;41.50;;;;;;484857;245;1413;-69
2021/09/21 03:09:13;;;;;;;;;;;24.20;41.90;;;;;;484878;245;1319;-69
2021/09/21 03:11:15;;;;;;;;;;;24.40;41.80;;;;;;484644;245;1468;-69
2021/09/21 03:13:24;;;;;;;;;;;24.30;42.00;;;;;;484843;245;1340;-69
2021/09/21 03:17:40;;;;;;;;;;;24.30;41.80;;;;;;485010;245;2148;-69
2021/09/21 03:19:42;;;;;;;;;;;24.30;41.90;;;;;;485018;245;1039;-69
2021/09/21 03:21:44;;;;;;;;;;;24.30;42.00;;;;;;484895;245;1197;-69
2021/09/21 03:23:44;;;;;;;;;;;24.20;41.80;;;;;;484854;245;1670;-69
2021/09/21 03:25:45;;;;;;;;;;;24.30;41.90;;;;;;484945;245;1074;-69
2021/09/21 03:27:47;;;;;;;;;;;24.10;42.10;;;;;;484839;246;1150;-69
2021/09/21 03:29:48;;;;;;;;;;;24.40;41.80;;;;;;484968;245;1030;-69
2021/09/21 03:31:49;;;;;;;;;;;24.30;42.10;;;;;;484878;245;1259;-69
2021/09/21 03:33:51;;;;;;;;;;;24.30;41.90;;;;;;484928;245;979;-69
2021/09/21 03:35:52;;;;;;;;;;;24.40;41.60;;;;;;484921;245;2104;-69
2021/09/21 03:37:53;;;;;;;;;;;24.50;41.50;;;;;;484905;245;1129;-69
2021/09/21 03:39:55;;;;;;;;;;;24.50;41.40;;;;;;484986;245;1135;-69
2021/09/21 03:41:56;;;;;;;;;;;24.30;41.90;;;;;;484939;245;1441;-69
2021/09/21 03:43:57;;;;;;;;;;;24.10;42.20;;;;;;485019;245;953;-69
2021/09/21 03:45:59;;;;;;;;;;;24.30;42.00;;;;;;484981;245;1298;-69
2021/09/21 03:48:00;;;;;;;;;;;24.30;42.00;;;;;;485032;245;1092;-69
2021/09/21 03:50:02;;;;;;;;;;;24.20;41.90;;;;;;485017;246;955;-69
2021/09/21 03:52:03;;;;;;;;;;;24.40;41.80;;;;;;484954;245;1217;-69
2021/09/21 03:54:08;;;;;;;;;;;24.30;41.90;;;;;;484959;245;1063;-69
2021/09/21 03:56:06;;;;;;;;;;;24.30;41.90;;;;;;484808;245;2140;-69
2021/09/21 03:58:08;;;;;;;;;;;24.40;41.80;;;;;;484962;245;1088;-69
2021/09/21 04:00:09;;;;;;;;;;;24.30;42.10;;;;;;484919;245;1097;-69
2021/09/21 04:02:10;;;;;;;;;;;24.30;42.00;;;;;;484915;245;1181;-69
2021/09/21 04:04:11;;;;;;;;;;;24.40;41.70;;;;;;484937;245;1050;-69
2021/09/21 04:06:13;;;;;;;;;;;24.30;42.10;;;;;;484902;245;1238;-69
2021/09/21 04:08:14;;;;;;;;;;;24.30;42.00;;;;;;484941;245;1243;-69
2021/09/21 04:10:15;;;;;;;;;;;24.40;41.70;;;;;;484936;245;1085;-69
2021/09/21 04:12:17;;;;;;;;;;;24.40;41.60;;;;;;484915;245;1070;-69
2021/09/21 04:14:18;;;;;;;;;;;24.30;42.00;;;;;;484889;246;991;-69
2021/09/21 04:16:19;;;;;;;;;;;24.40;41.90;;;;;;484752;246;2192;-69
2021/09/21 04:18:21;;;;;;;;;;;24.30;41.80;;;;;;484836;245;1046;-69
2021/09/21 04:20:22;;;;;;;;;;;24.30;41.90;;;;;;484837;245;999;-69
2021/09/21 04:22:23;;;;;;;;;;;24.20;42.20;;;;;;484790;246;1255;-69
2021/09/21 04:24:25;;;;;;;;;;;24.10;42.00;;;;;;484834;245;1023;-69
2021/09/21 04:26:26;;;;;;;;;;;24.30;42.00;;;;;;484788;245;1274;-69
2021/09/21 04:28:27;;;;;;;;;;;24.10;42.20;;;;;;484821;246;1079;-69
2021/09/21 04:30:29;;;;;;;;;;;24.30;42.00;;;;;;484822;245;1016;-69
2021/09/21 04:32:30;;;;;;;;;;;24.20;42.20;;;;;;484735;246;1166;-69
2021/09/21 04:34:32;;;;;;;;;;;24.10;42.20;;;;;;484885;245;967;-69
2021/09/21 04:36:33;;;;;;;;;;;24.30;42.00;;;;;;484715;245;2128;-69
2021/09/21 04:38:34;;;;;;;;;;;24.20;42.20;;;;;;484941;245;1048;-69
2021/09/21 04:40:35;;;;;;;;;;;24.30;42.10;;;;;;484877;245;1001;-69
2021/09/21 04:42:37;;;;;;;;;;;24.40;42.00;;;;;;484860;245;1056;-69
2021/09/21 04:44:38;;;;;;;;;;;24.40;41.80;;;;;;484753;245;1017;-69
2021/09/21 04:46:39;;;;;;;;;;;24.40;41.70;;;;;;484660;245;1249;-69
2021/09/21 04:48:40;;;;;;;;;;;24.20;42.30;;;;;;484786;245;1146;-69
2021/09/21 04:50:42;;;;;;;;;;;23.90;42.70;;;;;;484773;245;966;-69
2021/09/21 04:52:43;;;;;;;;;;;24.00;42.40;;;;;;484770;245;1153;-69
2021/09/21 04:54:44;;;;;;;;;;;24.10;42.50;;;;;;484653;245;1015;-69
2021/09/21 04:56:46;;;;;;;;;;;24.00;42.50;;;;;;484572;245;2183;-69
2021/09/21 04:58:47;;;;;;;;;;;24.20;42.30;;;;;;484639;245;956;-69
2021/09/21 05:00:49;;;;;;;;;;;24.20;42.30;;;;;;484618;245;1046;-69
2021/09/21 05:02:51;;;;;;;;;;;24.00;42.40;;;;;;484604;245;1207;-69
2021/09/21 05:04:52;;;;;;;;;;;24.30;42.20;;;;;;484649;245;990;-69
2021/09/21 05:06:53;;;;;;;;;;;24.20;42.30;;;;;;484661;245;1320;-69
2021/09/21 05:08:55;;;;;;;;;;;24.20;42.40;;;;;;484668;245;973;-69
2021/09/21 05:10:56;;;;;;;;;;;24.20;42.10;;;;;;484645;245;1231;-69
2021/09/21 05:12:57;;;;;;;;;;;24.20;42.30;;;;;;484631;245;1357;-68
2021/09/21 05:14:59;;;;;;;;;;;24.10;42.30;;;;;;484597;245;936;-68
2021/09/21 05:17:00;;;;;;;;;;;24.30;42.00;;;;;;484575;246;2203;-68
2021/09/21 05:19:01;;;;;;;;;;;24.40;42.00;;;;;;484642;245;1034;-68
2021/09/21 05:21:03;;;;;;;;;;;24.10;42.10;;;;;;484662;245;952;-68
2021/09/21 05:23:04;;;;;;;;;;;24.10;42.40;;;;;;484579;245;1225;-68
2021/09/21 05:25:05;;;;;;;;;;;24.00;42.70;;;;;;484556;245;1122;-68
2021/09/21 05:27:07;;;;;;;;;;;23.80;42.60;;;;;;484586;245;1319;-68
2021/09/21 05:29:08;;;;;;;;;;;24.20;42.50;;;;;;484688;245;1180;-68
2021/09/21 05:31:09;;;;;;;;;;;24.00;42.60;;;;;;484521;246;1185;-68
2021/09/21 05:33:10;;;;;;;;;;;24.00;42.40;;;;;;484602;245;1175;-68
2021/09/21 05:35:12;;;;;;;;;;;24.20;42.20;;;;;;484619;245;979;-68
2021/09/21 05:37:13;;;;;;;;;;;24.50;41.90;;;;;;484478;246;2203;-68
2021/09/21 05:39:16;;;;;;;;;;;24.50;41.80;;;;;;484567;245;1081;-68
2021/09/21 05:41:16;;;;;;;;;;;24.40;41.80;;;;;;484584;245;1613;-68
2021/09/21 05:43:17;;;;;;;;;;;24.10;42.10;;;;;;484520;245;1091;-68
2021/09/21 05:45:18;;;;;;;;;;;24.30;42.10;;;;;;484562;245;1214;-68
2021/09/21 05:47:20;;;;;;;;;;;24.30;42.40;;;;;;484464;245;1128;-68
2021/09/21 05:49:21;;;;;;;;;;;24.30;42.30;;;;;;484531;245;1141;-68
2021/09/21 05:51:22;;;;;;;;;;;24.40;41.90;;;;;;484429;245;1234;-68
2021/09/21 05:53:24;;;;;;;;;;;24.10;42.40;;;;;;484439;245;1219;-68
2021/09/21 05:55:27;;;;;;;;;;;24.00;42.50;;;;;;484362;246;1111;-69
2021/09/21 05:57:27;;;;;;;;;;;24.20;42.30;;;;;;484221;245;2171;-69
2021/09/21 05:59:28;;;;;;;;;;;24.10;42.50;;;;;;484110;246;1084;-69
2021/09/21 06:01:30;;;;;;;;;;;24.20;42.40;;;;;;483979;245;1197;-69
2021/09/21 06:03:31;;;;;;;;;;;24.30;42.00;;;;;;484083;245;1312;-69
2021/09/21 06:05:32;;;;;;;;;;;24.20;42.40;;;;;;483996;245;1405;-69
2021/09/21 06:07:34;;;;;;;;;;;24.10;42.30;;;;;;484015;246;1113;-69
2021/09/21 06:09:35;;;;;;;;;;;24.30;42.00;;;;;;484121;245;1143;-69
2021/09/21 06:11:37;;;;;;;;;;;24.20;42.30;;;;;;484091;246;1090;-69
2021/09/21 06:13:38;;;;;;;;;;;24.30;42.10;;;;;;484033;246;1123;-69
2021/09/21 06:15:39;;;;;;;;;;;24.30;42.10;;;;;;483910;246;1192;-69
2021/09/21 06:17:41;;;;;;;;;;;24.00;42.40;;;;;;484013;245;2133;-69
2021/09/21 06:19:42;;;;;;;;;;;24.30;42.10;;;;;;484136;246;1052;-69
2021/09/21 06:21:44;;;;;;;;;;;24.40;42.00;;;;;;484142;245;1350;-69
2021/09/21 06:23:45;;;;;;;;;;;24.40;41.80;;;;;;484441;245;1039;-69
2021/09/21 06:25:46;;;;;;;;;;;24.50;41.70;;;;;;484326;245;1466;-69
2021/09/21 06:27:47;;;;;;;;;;;24.10;42.10;;;;;;484545;245;1329;-69
2021/09/21 06:31:59;;;;;;;;;;;24.40;41.80;;;;;;472736;243;2571;-69
2021/09/21 06:34:00;;;;;;;;;;;24.50;41.70;;;;;;472076;251;1022;-69
2021/09/21 06:36:01;;;;;;;;;;;24.40;41.80;;;;;;472012;251;1359;-69
2021/09/21 06:38:03;;;;;;;;;;;24.40;41.90;;;;;;471981;252;2193;-69
2021/09/21 06:40:04;;;;;;;;;;;24.30;41.90;;;;;;471985;251;758;-69
2021/09/21 06:42:05;;;;;;;;;;;24.30;42.00;;;;;;473022;251;1188;-69
2021/09/21 06:44:07;;;;;;;;;;;24.40;42.00;;;;;;471921;252;890;-69
2021/09/21 06:46:08;;;;;;;;;;;24.20;42.30;;;;;;471682;251;1158;-69
2021/09/21 06:48:11;;;;;;;;;;;24.20;42.30;;;;;;472055;251;1078;-69
2021/09/21 06:50:11;;;;;;;;;;;24.40;42.10;;;;;;471965;252;1293;-69
2021/09/21 06:52:12;;;;;;;;;;;24.10;42.30;;;;;;471561;251;1054;-69
2021/09/21 06:54:13;;;;;;;;;;;24.20;42.20;;;;;;471810;251;1041;-69
2021/09/21 06:56:15;;;;;;;;;;;24.40;42.10;;;;;;471651;251;1517;-69
2021/09/21 06:58:16;;;;;;;;;;;24.50;41.80;;;;;;471323;251;2201;-69
2021/09/21 07:00:17;;;;;;;;;;;24.60;41.60;;;;;;471700;251;1124;-69
2021/09/21 07:02:19;;;;;;;;;;;24.30;42.20;;;;;;471856;251;1009;-69
2021/09/21 07:04:20;;;;;;;;;;;24.30;42.20;;;;;;471698;251;695;-69
2021/09/21 07:06:21;;;;;;;;;;;24.40;42.00;;;;;;471262;251;1278;-69
2021/09/21 07:08:23;;;;;;;;;;;24.30;42.20;;;;;;471216;251;1052;-69
2021/09/21 07:10:24;;;;;;;;;;;24.30;42.10;;;;;;471730;251;1476;-69
2021/09/21 07:12:25;;;;;;;;;;;24.40;42.10;;;;;;471284;251;1227;-69
2021/09/21 07:14:26;;;;;;;;;;;24.30;42.20;;;;;;471398;251;779;-69
2021/09/21 07:16:28;;;;;;;;;;;24.30;42.10;;;;;;471342;251;1237;-69
2021/09/21 07:18:29;;;;;;;;;;;24.30;42.20;;;;;;471820;251;2194;-69
2021/09/21 07:20:30;;;;;;;;;;;24.00;42.60;;;;;;471896;251;1347;-69
2021/09/21 07:22:32;;;;;;;;;;;24.30;42.40;;;;;;471845;251;1337;-69
2021/09/21 07:24:33;;;;;;;;;;;24.10;42.60;;;;;;471943;251;977;-69
2021/09/21 07:26:34;;;;;;;;;;;24.00;42.90;;;;;;471343;251;1220;-69
2021/09/21 07:28:36;;;;;;;;;;;24.00;43.00;;;;;;471711;251;778;-69
2021/09/21 07:30:37;;;;;;;;;;;24.30;42.50;;;;;;471473;251;1211;-69
2021/09/21 07:32:39;;;;;;;;;;;24.30;42.30;;;;;;487549;242;1138;-69
2021/09/21 07:34:40;;;;;;;;;;;24.40;42.20;;;;;;490275;242;1030;-69
2021/09/21 07:36:41;;;;;;;;;;;24.00;42.60;;;;;;490648;242;1112;-69
2021/09/21 07:38:42;;;;;;;;;;;24.30;42.50;;;;;;490134;242;2241;-69
2021/09/21 07:40:44;;;;;;;;;;;24.20;42.40;;;;;;490325;242;1114;-69
2021/09/21 07:42:45;;;;;;;;;;;24.30;42.50;;;;;;490928;242;1032;-69
2021/09/21 07:44:46;;;;;;;;;;;24.40;42.50;;;;;;491091;242;831;-69
2021/09/21 07:46:47;;;;;;;;;;;24.10;42.80;;;;;;490559;242;1197;-69
2021/09/21 07:48:49;;;;;;;;;;;23.90;43.00;;;;;;490253;242;1093;-69
2021/09/21 07:50:51;;;;;;;;;;;24.20;42.80;;;;;;490640;242;1382;-69
2021/09/21 07:52:52;;;;;;;;;;;24.20;42.80;;;;;;490190;242;1299;-69
2021/09/21 07:54:53;;;;;;;;;;;24.30;42.40;;;;;;490799;242;825;-69
2021/09/21 07:56:54;;;;;;;;;;;24.20;42.60;;;;;;489928;242;1105;-69
2021/09/21 07:58:56;;;;;;;;;;;24.10;42.90;;;;;;489944;242;2188;-69
2021/09/21 08:00:57;;;;;;;;;;;24.20;42.60;;;;;;490288;242;1196;-69
2021/09/21 08:02:58;;;;;;;;;;;24.30;42.60;;;;;;490385;242;1058;-69
2021/09/21 08:04:59;;;;;;;;;;;24.10;42.50;;;;;;490980;242;825;-69
2021/09/21 08:07:01;;;;;;;;;;;24.30;42.40;;;;;;490876;242;1356;-69
2021/09/21 08:09:02;;;;;;;;;;;24.40;42.30;;;;;;490503;242;878;-69
2021/09/21 08:11:05;;;;;;;;;;;24.40;42.20;;;;;;489779;242;1250;-69
2021/09/21 08:13:05;;;;;;;;;;;24.50;41.90;;;;;;490636;242;1465;-69
2021/09/21 08:15:06;;;;;;;;;;;24.40;42.00;;;;;;490009;242;1357;-69
2021/09/21 08:17:07;;;;;;;;;;;24.20;42.10;;;;;;490644;242;1230;-69
2021/09/21 08:19:09;;;;;;;;;;;24.40;41.90;;;;;;490691;242;2172;-69
2021/09/21 08:21:10;;;;;;;;;;;24.40;42.00;;;;;;489761;242;1580;-69
2021/09/21 08:23:11;;;;;;;;;;;24.50;41.60;;;;;;489323;242;1007;-69
2021/09/21 08:25:13;;;;;;;;;;;24.50;41.50;;;;;;490661;242;726;-69
2021/09/21 08:27:14;;;;;;;;;;;24.30;41.70;;;;;;490203;242;1097;-69
2021/09/21 08:29:15;;;;;;;;;;;24.40;41.50;;;;;;490759;242;841;-69
2021/09/21 08:31:16;;;;;;;;;;;24.40;41.40;;;;;;490207;242;1272;-69
2021/09/21 08:33:18;;;;;;;;;;;24.20;41.50;;;;;;490535;242;899;-69
2021/09/21 08:35:19;;;;;;;;;;;24.40;41.20;;;;;;490338;242;1065;-69
2021/09/21 08:37:20;;;;;;;;;;;24.60;40.90;;;;;;490459;242;1073;-69
2021/09/21 08:39:22;;;;;;;;;;;24.60;40.60;;;;;;490272;242;2196;-69
2021/09/21 08:41:24;;;;;;;;;;;24.60;40.50;;;;;;490679;242;989;-69
2021/09/21 08:43:24;;;;;;;;;;;24.60;40.50;;;;;;490401;243;1329;-69
2021/09/21 08:45:26;;;;;;;;;;;24.60;40.30;;;;;;491125;242;900;-69
2021/09/21 08:47:27;;;;;;;;;;;24.40;40.60;;;;;;490594;242;1333;-69
2021/09/21 08:49:28;;;;;;;;;;;24.40;40.60;;;;;;490679;242;1249;-69
2021/09/21 08:51:30;;;;;;;;;;;24.30;40.80;;;;;;491063;242;925;-69
2021/09/21 08:53:31;;;;;;;;;;;24.30;40.80;;;;;;491057;242;844;-69
2021/09/21 08:55:32;;;;;;;;;;;24.20;40.70;;;;;;491024;242;846;-69
2021/09/21 08:57:34;;;;;;;;;;;24.30;40.70;;;;;;490525;242;1069;-69
2021/09/21 08:59:35;;;;;;;;;;;24.30;40.70;;;;;;490629;242;2188;-69
2021/09/21 09:01:36;;;;;;;;;;;24.30;40.40;;;;;;490337;242;1100;-69
2021/09/21 09:03:38;;;;;;;;;;;24.50;40.30;;;;;;490703;242;1382;-69
2021/09/21 09:05:39;;;;;;;;;;;24.40;40.40;;;;;;490241;242;732;-69
2021/09/21 09:07:40;;;;;;;;;;;24.30;40.30;;;;;;490227;242;1179;-69
2021/09/21 09:09:41;;;;;;;;;;;24.40;40.20;;;;;;490466;242;793;-69
2021/09/21 09:11:43;;;;;;;;;;;24.30;40.20;;;;;;490418;242;1202;-69
2021/09/21 09:13:44;;;;;;;;;;;24.30;40.30;;;;;;490595;242;821;-69
2021/09/21 09:15:50;;;;;;;;;;;24.40;40.20;;;;;;490453;242;769;-69
2021/09/21 09:17:47;;;;;;;;;;;24.40;40.00;;;;;;489694;242;1284;-69
2021/09/21 09:19:50;;;;;;;;;;;24.50;39.80;;;;;;490578;242;2184;-69
2021/09/21 09:21:50;;;;;;;;;;;24.60;39.50;;;;;;489914;242;1312;-69
2021/09/21 09:23:51;;;;;;;;;;;24.50;39.40;;;;;;489873;242;793;-69
2021/09/21 09:25:52;;;;;;;;;;;24.40;39.60;;;;;;490733;242;1113;-69
2021/09/21 09:27:53;;;;;;;;;;;24.40;39.60;;;;;;490256;242;1056;-69
2021/09/21 09:29:55;;;;;;;;;;;24.30;39.50;;;;;;490696;242;657;-69
2021/09/21 09:31:56;;;;;;;;;;;24.50;39.40;;;;;;490590;242;1077;-69
2021/09/21 09:33:57;;;;;;;;;;;24.30;39.60;;;;;;490917;242;981;-69
2021/09/21 09:35:59;;;;;;;;;;;24.40;39.50;;;;;;491009;242;1227;-69
2021/09/21 09:38:00;;;;;;;;;;;24.40;39.40;;;;;;490591;242;2191;-69
2021/09/21 09:40:01;;;;;;;;;;;24.60;39.00;;;;;;490949;242;917;-69
2021/09/21 09:42:03;;;;;;;;;;;24.40;39.30;;;;;;490568;242;1189;-69
2021/09/21 09:44:04;;;;;;;;;;;24.60;38.90;;;;;;491162;242;827;-69
2021/09/21 09:46:05;;;;;;;;;;;24.20;39.10;;;;;;490602;242;1456;-69
2021/09/21 09:48:07;;;;;;;;;;;24.40;39.20;;;;;;490662;242;1107;-69
2021/09/21 09:50:08;;;;;;;;;;;24.10;39.40;;;;;;490989;242;824;-69
2021/09/21 09:52:09;;;;;;;;;;;24.30;39.20;;;;;;490668;242;1114;-69
2021/09/21 09:54:11;;;;;;;;;;;24.30;39.30;;;;;;490792;242;811;-69
2021/09/21 09:56:12;;;;;;;;;;;24.10;39.40;;;;;;490718;242;1393;-69
2021/09/21 09:58:14;;;;;;;;;;;24.40;38.90;;;;;;490711;242;2180;-69
2021/09/21 10:00:15;;;;;;;;;;;24.50;38.80;;;;;;490518;242;813;-69
2021/09/21 10:02:16;;;;;;;;;;;24.60;38.40;;;;;;490530;242;1163;-69
2021/09/21 10:04:17;;;;;;;;;;;24.60;38.40;;;;;;491131;242;857;-69
2021/09/21 10:06:18;;;;;;;;;;;24.50;38.40;;;;;;490497;242;1420;-69
2021/09/21 10:08:20;;;;;;;;;;;24.50;38.30;;;;;;490843;242;819;-69
2021/09/21 10:10:21;;;;;;;;;;;24.50;38.30;;;;;;490887;242;1012;-69
2021/09/21 10:12:22;;;;;;;;;;;24.30;38.70;;;;;;490865;242;1005;-69
2021/09/21 10:14:24;;;;;;;;;;;24.20;38.80;;;;;;490937;242;852;-69
2021/09/21 10:16:25;;;;;;;;;;;24.50;38.40;;;;;;490834;242;1247;-69
2021/09/21 10:18:27;;;;;;;;;;;24.40;38.50;;;;;;490406;242;2184;-69
2021/09/21 10:20:28;;;;;;;;;;;24.30;38.40;;;;;;490236;242;1111;-69
2021/09/21 10:22:29;;;;;;;;;;;24.50;38.30;;;;;;490226;242;1099;-69
2021/09/21 10:24:30;;;;;;;;;;;24.60;38.20;;;;;;490033;242;1047;-69
2021/09/21 10:26:32;;;;;;;;;;;24.60;38.10;;;;;;489955;242;1189;-69
2021/09/21 10:28:33;;;;;;;;;;;24.70;37.90;;;;;;489576;242;1141;-69
2021/09/21 10:30:34;;;;;;;;;;;24.50;38.00;;;;;;489882;242;1063;-69
2021/09/21 10:32:36;;;;;;;;;;;24.60;37.80;;;;;;489917;242;1176;-69
2021/09/21 10:34:37;;;;;;;;;;;24.60;37.90;;;;;;490239;242;1190;-69
2021/09/21 10:36:38;;;;;;;;;;;24.40;38.10;;;;;;490238;242;1204;-69
2021/09/21 10:38:40;;;;;;;;;;;24.70;37.70;;;;;;490099;242;2200;-69
2021/09/21 10:40:41;;;;;;;;;;;24.70;37.90;;;;;;489995;242;1104;-69
2021/09/21 10:42:42;;;;;;;;;;;24.90;37.60;;;;;;490218;242;1287;-69
2021/09/21 10:44:44;;;;;;;;;;;24.80;37.60;;;;;;490266;242;1051;-69
2021/09/21 10:46:45;;;;;;;;;;;24.80;37.70;;;;;;489325;242;1141;-69
2021/09/21 10:48:46;;;;;;;;;;;24.60;37.90;;;;;;490195;242;1161;-69
2021/09/21 10:50:47;;;;;;;;;;;24.60;37.90;;;;;;489964;242;1142;-69
2021/09/21 10:52:49;;;;;;;;;;;24.60;37.90;;;;;;489900;242;1293;-69
2021/09/21 10:54:51;;;;;;;;;;;24.50;38.00;;;;;;490114;242;1156;-69
2021/09/21 10:56:52;;;;;;;;;;;24.70;37.90;;;;;;490243;242;1252;-69
2021/09/21 10:58:53;;;;;;;;;;;24.60;37.90;;;;;;490074;242;2168;-69
2021/09/21 11:00:54;;;;;;;;;;;24.40;38.20;;;;;;489870;242;1272;-69
2021/09/21 11:02:56;;;;;;;;;;;24.50;38.20;;;;;;489851;242;1306;-69
2021/09/21 11:04:57;;;;;;;;;;;24.50;38.20;;;;;;490146;242;1046;-69
2021/09/21 11:06:58;;;;;;;;;;;24.40;38.20;;;;;;489111;242;1092;-69
2021/09/21 11:09:00;;;;;;;;;;;24.60;38.00;;;;;;490212;242;1343;-69
2021/09/21 11:11:02;;;;;;;;;;;24.60;38.10;;;;;;490238;242;1165;-69
2021/09/21 11:13:03;;;;;;;;;;;24.40;38.10;;;;;;490824;242;1038;-69
2021/09/21 11:15:04;;;;;;;;;;;24.50;38.10;;;;;;490833;242;810;-69
2021/09/21 11:17:06;;;;;;;;;;;24.40;38.20;;;;;;490723;242;1276;-69
2021/09/21 11:19:08;;;;;;;;;;;24.40;38.30;;;;;;490459;242;2200;-69
2021/09/21 11:21:08;;;;;;;;;;;24.60;38.10;;;;;;489389;242;1430;-69
2021/09/21 11:23:10;;;;;;;;;;;24.40;38.30;;;;;;490695;242;1034;-69
2021/09/21 11:25:11;;;;;;;;;;;24.40;38.20;;;;;;490676;242;1042;-69
2021/09/21 11:27:12;;;;;;;;;;;24.60;38.00;;;;;;490578;242;1225;-69
2021/09/21 11:29:13;;;;;;;;;;;24.30;38.30;;;;;;490342;242;834;-69
2021/09/21 11:31:16;;;;;;;;;;;24.50;38.20;;;;;;490705;242;1178;-69
2021/09/21 11:33:16;;;;;;;;;;;24.50;38.30;;;;;;490154;243;1484;-69
2021/09/21 11:35:17;;;;;;;;;;;24.30;38.50;;;;;;490737;242;914;-69
2021/09/21 11:37:19;;;;;;;;;;;24.50;38.30;;;;;;490557;242;1208;-69
2021/09/21 11:39:20;;;;;;;;;;;24.30;38.50;;;;;;490366;242;2180;-69
2021/09/21 11:41:22;;;;;;;;;;;24.40;38.40;;;;;;490478;242;1096;-69
2021/09/21 11:43:23;;;;;;;;;;;24.60;38.10;;;;;;490309;242;1594;-69
2021/09/21 11:45:24;;;;;;;;;;;24.70;37.80;;;;;;489814;242;1476;-69
2021/09/21 11:47:25;;;;;;;;;;;24.70;37.70;;;;;;489680;242;1248;-69
2021/09/21 11:49:27;;;;;;;;;;;24.60;37.70;;;;;;490358;242;1071;-69
2021/09/21 11:51:28;;;;;;;;;;;24.60;38.00;;;;;;490097;242;1098;-69
2021/09/21 11:53:30;;;;;;;;;;;24.80;37.80;;;;;;490198;242;1094;-69
2021/09/21 11:55:31;;;;;;;;;;;24.70;37.80;;;;;;489917;242;1351;-69
2021/09/21 11:57:32;;;;;;;;;;;24.70;37.90;;;;;;489890;242;1053;-69
2021/09/21 11:59:33;;;;;;;;;;;24.60;38.10;;;;;;490333;242;2180;-69
2021/09/21 12:01:35;;;;;;;;;;;24.70;38.00;;;;;;490072;242;1130;-69
2021/09/21 12:03:36;;;;;;;;;;;24.30;38.60;;;;;;489758;242;1077;-69
2021/09/21 12:05:37;;;;;;;;;;;24.20;38.60;;;;;;489198;242;1435;-69